Anchorville, MI

5:27 PM EST on February 12, 2016 (GMT -0500)
Swan Creek | | Change Station
CLOSE
Current Station
Personal Weather Station
Location: Michigan, MI
Elevation: 584 ft
Nearby Weather Stations
Active Advisory: Wind Chill Advisory

Elev 584 ft 42.68 °N, 82.65 °W | Updated 3 minutes ago

Overcast
Overcast
19.7 °F
Feels Like 14 °F
N
4.0
Wind Variable Wind from NNW
Gusts 17.0 mph

Today
High -- | Low -- °F
--% Chance of Precip.
Yesterday
High -- | Low -- °F
Precip. -- in
Pressure 29.93 in
Visibility 6.0 miles
Clouds Few 1400 ft
Few 2500 ft
Scattered Clouds 3400 ft
Mostly Cloudy 5500 ft
Windchill 14 °F
Dew Point 12 °F
Humidity 72%
Rainfall 0.00 in
Snow Depth Not available.
7:32 AM 5:57 PM
Waxing Crescent, 24% visible
SPECI KMTC 122206Z 29015G23KT 6SM BLSN FEW014 FEW025 SCT034 BKN055 M07/M12 A2993 RMK AO2A SNB01E06
Pressure 29.93 in
Visibility 6.0 miles
Clouds Few 1400 ft
Few 2500 ft
Scattered Clouds 3400 ft
Mostly Cloudy 5500 ft
Windchill 14 °F
Dew Point 12 °F
Humidity 72%
Rainfall 0.00 in
Snow Depth Not available.
7:32 AM 5:57 PM
Waxing Crescent, 24% visible
SPECI KMTC 122206Z 29015G23KT 6SM BLSN FEW014 FEW025 SCT034 BKN055 M07/M12 A2993 RMK AO2A SNB01E06

10-Day Weather Forecast

Almanac

Astronomy

Feb. 12, 2016 Rise Set
Actual Time
Civil Twilight
Nautical Twilight
Astronomical Twilight
Moon
Length of Visible Light
Length of Day
Tomorrow will be .
, % of the Moon is Illuminated

Today's Extremes

State Highs State Lows

Community

WunderPhotos

Upload Photos

1,892,421 photos uploaded!

WunderBlog® & News

Nearby

Air Quality

  Air Quality AQ Index Pollutant
Not available.

Snow Depth

Station Depth Elevation

Earthquake Activity

City Distance Mag. Time & Date
Minimum magnitude displayed is 2.5.

Coastal Water Temperatures

Place Temperature

Stations

Nearby Weather Stations

Station Location Temp. Windchill Dew Point Humidity Wind Precip. Elev Updated Type
                   

Watches & Warnings

Wind Chill Advisory
Issued: 3:45 PM EST Feb. 12, 2016 – National Weather Service

... Wind Chill Advisory remains in effect from 10 PM this evening
to 11 am EST Saturday...

Hazardous weather...

* wind chill readings will fall to around 20 degrees below zero
   late this evening and persist into Saturday morning.

* Northwest winds will range between 10 and 20 mph with the
   strongest winds near Lake Huron.

* Temperatures will fall to between zero and 5 degrees below
   zero overnight tonight.

Impacts...

* frost bite will be possible in half an hour or less for
   exposed skin at these wind chill levels.

Precautionary/preparedness actions...

* a Wind Chill Advisory means that very cold air and strong
   winds will combine to generate low wind chills. This will
   result in frost bite and lead to hypothermia if precautions
   are not taken. If you must venture outdoors... make sure you
   wear a hat and gloves.

* Prepare... plan... and stay informed. Visit
   http://go.USA.Gov/rr8



Cb